Time;durP1;ratioP1;P1;durP2;ratioP2;P2;SDS_P1;SDS_P2;PMS_P1;PMS_P2;Temp;Humidity;BMP_temperature;BMP_pressure;BME280_temperature;BME280_humidity;BME280_pressure;Samples;Min_cycle;Max_cycle;Signal;HPM_P1;HPM_P2
2021/12/02 00:01:09;;;;;;;6.43;1.40;;;4.50;99.90;;;;;;4957130;28;20031;-49
2021/12/02 00:03:35;;;;;;;8.05;1.63;;;4.40;99.90;;;;;;4957250;28;20027;-49
2021/12/02 00:06:02;;;;;;;9.70;2.05;;;4.40;99.90;;;;;;4955630;28;20031;-47
2021/12/02 00:08:28;;;;;;;8.00;1.83;;;4.40;99.90;;;;;;4957397;28;20051;-49
2021/12/02 00:10:53;;;;;;;9.60;1.27;;;4.30;99.90;;;;;;4957129;28;20027;-48
2021/12/02 00:13:24;;;;;;;8.82;1.30;;;4.30;99.90;;;;;;4956907;28;20452;-49
2021/12/02 00:15:58;;;;;;;12.57;1.40;;;4.30;99.90;;;;;;4956212;28;20027;-49
2021/12/02 00:21:06;;;;;;;9.98;1.60;;;4.40;99.90;;;;;;4956335;28;20114;-48
2021/12/02 00:23:34;;;;;;;9.02;2.10;;;4.40;99.90;;;;;;4955821;28;20041;-49
2021/12/02 00:26:19;;;;;;;7.93;1.77;;;4.50;99.90;;;;;;4937369;29;20045;-48
2021/12/02 00:28:50;;;;;;;16.33;2.03;;;4.50;99.90;;;;;;4937176;29;20486;-48
2021/12/02 00:31:18;;;;;;;9.05;1.85;;;4.50;99.90;;;;;;4936957;29;20031;-48
2021/12/02 00:33:53;;;;;;;6.20;1.77;;;4.50;99.90;;;;;;4937856;29;20036;-47
2021/12/02 00:36:21;;;;;;;13.32;2.28;;;4.60;99.90;;;;;;4956033;28;20031;-49
2021/12/02 00:38:47;;;;;;;14.93;2.90;;;4.60;99.90;;;;;;4956331;28;20056;-48
2021/12/02 00:41:15;;;;;;;9.57;2.30;;;4.60;99.90;;;;;;4955865;28;20039;-48
2021/12/02 00:43:41;;;;;;;10.82;1.92;;;4.60;99.90;;;;;;4953017;28;20035;-48
2021/12/02 00:46:10;;;;;;;9.93;2.10;;;4.60;99.90;;;;;;4956062;28;20485;-48
2021/12/02 00:48:37;;;;;;;12.73;2.13;;;4.60;99.90;;;;;;4955774;28;20038;-48
2021/12/02 00:51:04;;;;;;;12.45;2.17;;;4.60;99.90;;;;;;4956290;28;20576;-51
2021/12/02 00:53:32;;;;;;;15.55;2.20;;;4.40;99.90;;;;;;4955682;28;20038;-47
2021/12/02 00:56:03;;;;;;;12.77;2.92;;;4.30;99.90;;;;;;4955311;28;20443;-49
2021/12/02 00:58:30;;;;;;;15.20;2.45;;;4.20;99.90;;;;;;4955077;28;20024;-47
2021/12/02 01:00:57;;;;;;;10.75;1.80;;;4.10;99.90;;;;;;4954938;29;20031;-49
2021/12/02 01:03:24;;;;;;;8.23;1.90;;;4.00;99.90;;;;;;4955417;28;20468;-50
2021/12/02 01:05:50;;;;;;;18.52;3.92;;;4.00;99.90;;;;;;4955965;28;20086;-48
2021/12/02 01:08:17;;;;;;;12.90;2.00;;;3.90;99.90;;;;;;4955384;28;20423;-48
2021/12/02 01:10:43;;;;;;;11.10;1.60;;;3.90;99.90;;;;;;4954581;28;20035;-48
2021/12/02 01:13:08;;;;;;;16.08;1.92;;;3.90;99.90;;;;;;4955189;29;20480;-48
2021/12/02 01:15:34;;;;;;;21.05;2.63;;;3.90;99.90;;;;;;4955341;29;20042;-49
2021/12/02 01:18:00;;;;;;;8.52;2.13;;;3.80;99.90;;;;;;4953804;29;20019;-47
2021/12/02 01:20:26;;;;;;;13.77;2.40;;;3.80;99.90;;;;;;4954631;29;20027;-50
2021/12/02 01:22:53;;;;;;;16.20;2.47;;;3.80;99.90;;;;;;4955310;28;20534;-47
2021/12/02 01:25:19;;;;;;;16.45;2.22;;;3.90;99.90;;;;;;4954965;28;20130;-47
2021/12/02 01:27:47;;;;;;;13.75;2.20;;;3.90;99.90;;;;;;4953676;28;20461;-49
2021/12/02 01:30:13;;;;;;;14.93;2.72;;;3.90;99.90;;;;;;4955179;28;20030;-50
2021/12/02 01:32:40;;;;;;;16.58;2.60;;;3.80;99.90;;;;;;4954285;28;20131;-48
2021/12/02 01:35:06;;;;;;;16.48;2.13;;;3.80;99.90;;;;;;4954826;28;20445;-51
2021/12/02 01:37:32;;;;;;;13.07;3.00;;;3.80;99.90;;;;;;4954845;28;20035;-48
2021/12/02 01:39:58;;;;;;;15.15;2.92;;;3.90;99.90;;;;;;4954970;28;20031;-49
2021/12/02 01:42:27;;;;;;;11.90;2.53;;;3.90;99.90;;;;;;4954994;28;20068;-47
2021/12/02 01:44:55;;;;;;;11.77;2.40;;;3.90;99.90;;;;;;4953811;29;20066;-48
2021/12/02 01:47:26;;;;;;;10.55;2.50;;;4.00;99.90;;;;;;4954792;29;20031;-51
2021/12/02 01:49:56;;;;;;;8.70;1.83;;;4.00;99.90;;;;;;4954978;29;20042;-48
2021/12/02 01:52:27;;;;;;;7.55;1.33;;;4.00;99.90;;;;;;4955450;29;20468;-48
2021/12/02 01:55:02;;;;;;;;;;;4.00;99.90;;;;;;4955020;28;20023;-48
2021/12/02 01:57:33;;;;;;;6.63;1.85;;;4.00;99.90;;;;;;4953703;29;19906;-47
2021/12/02 02:00:08;;;;;;;9.95;1.90;;;4.10;99.90;;;;;;4953635;29;20027;-47
2021/12/02 02:02:37;;;;;;;18.15;1.95;;;4.20;99.90;;;;;;4954320;29;20031;-49
2021/12/02 02:05:06;;;;;;;7.70;1.48;;;4.20;99.90;;;;;;4954511;29;20090;-47
2021/12/02 02:07:36;;;;;;;11.98;1.90;;;4.20;99.90;;;;;;4954819;29;20032;-47
2021/12/02 02:10:02;;;;;;;13.63;2.35;;;4.10;99.90;;;;;;4954236;29;20035;-49
2021/12/02 02:12:27;;;;;;;12.23;1.60;;;4.10;99.90;;;;;;4953604;29;20055;-48
2021/12/02 02:14:54;;;;;;;12.50;2.05;;;4.10;99.90;;;;;;4954198;28;20032;-47
2021/12/02 02:17:25;;;;;;;5.47;1.73;;;4.10;99.90;;;;;;4952815;28;20082;-49
2021/12/02 02:19:51;;;;;;;10.60;1.75;;;4.10;99.90;;;;;;4954552;28;20106;-48
2021/12/02 02:22:22;;;;;;;19.17;1.83;;;4.10;99.90;;;;;;4954185;28;20043;-50
2021/12/02 02:24:49;;;;;;;15.13;2.08;;;4.10;99.90;;;;;;4954156;28;20023;-51
2021/12/02 02:27:15;;;;;;;6.38;1.45;;;4.10;99.90;;;;;;4953623;28;20054;-48
2021/12/02 02:29:41;;;;;;;7.53;1.40;;;4.10;99.90;;;;;;4954381;28;20210;-50
2021/12/02 02:32:07;;;;;;;9.90;2.03;;;4.10;99.90;;;;;;4954396;28;20417;-48
2021/12/02 02:34:32;;;;;;;11.90;1.90;;;4.10;99.90;;;;;;4954043;28;20074;-47
2021/12/02 02:37:02;;;;;;;8.80;1.50;;;4.20;99.90;;;;;;4954329;28;20023;-47
2021/12/02 02:39:29;;;;;;;10.55;1.90;;;4.20;99.90;;;;;;4954357;28;20055;-48
2021/12/02 02:42:00;;;;;;;9.70;2.30;;;4.10;99.90;;;;;;4944638;28;20043;-48
2021/12/02 02:44:28;;;;;;;8.77;1.92;;;4.10;99.90;;;;;;4950210;29;20106;-48
2021/12/02 02:46:54;;;;;;;11.63;1.70;;;4.10;99.90;;;;;;4953839;28;20046;-48
2021/12/02 02:49:20;;;;;;;10.52;2.55;;;4.10;99.90;;;;;;4952445;28;20032;-49
2021/12/02 02:51:47;;;;;;;7.50;1.25;;;4.10;99.90;;;;;;4954051;29;20169;-47
2021/12/02 02:54:15;;;;;;;9.98;1.33;;;4.10;99.90;;;;;;4953892;28;20050;-47
2021/12/02 02:56:49;;;;;;;11.35;1.50;;;4.10;99.90;;;;;;4953393;29;20023;-48
2021/12/02 02:59:30;;;;;;;7.43;1.38;;;4.10;99.90;;;;;;4942335;29;20106;-47
2021/12/02 03:02:12;;;;;;;7.33;1.77;;;4.20;99.90;;;;;;4953631;29;20401;-48
2021/12/02 03:17:22;;;;;;;8.68;1.55;;;4.10;99.90;;;;;;4956040;28;20094;-47
2021/12/02 03:19:48;;;;;;;8.35;1.52;;;4.00;99.90;;;;;;4956867;28;20031;-49
2021/12/02 03:22:17;;;;;;;9.57;2.25;;;4.00;99.90;;;;;;4956908;28;20107;-48
2021/12/02 03:24:42;;;;;;;11.48;1.45;;;4.00;99.90;;;;;;4957042;29;20023;-51
2021/12/02 03:27:08;;;;;;;8.35;1.50;;;4.00;99.90;;;;;;4956031;29;20492;-48
2021/12/02 03:29:35;;;;;;;11.43;1.90;;;4.00;99.90;;;;;;4955401;28;20433;-51
2021/12/02 03:32:01;;;;;;;14.75;2.28;;;3.90;99.90;;;;;;4956998;28;20054;-50
2021/12/02 03:34:27;;;;;;;8.13;1.30;;;3.90;99.90;;;;;;4956821;28;20038;-51
2021/12/02 03:36:53;;;;;;;4.57;1.05;;;3.90;99.90;;;;;;4956679;28;20050;-51
2021/12/02 03:39:19;;;;;;;5.53;0.98;;;3.80;99.90;;;;;;4956604;28;20027;-48
2021/12/02 03:41:44;;;;;;;9.30;1.70;;;3.80;99.90;;;;;;4956058;28;20027;-50
2021/12/02 03:44:10;;;;;;;9.57;1.10;;;3.80;99.90;;;;;;4956490;28;20126;-52
2021/12/02 03:46:37;;;;;;;6.32;1.20;;;3.80;99.90;;;;;;4955915;28;20089;-47
2021/12/02 03:49:03;;;;;;;10.07;1.20;;;3.80;99.90;;;;;;4956559;28;20118;-48
2021/12/02 03:51:29;;;;;;;10.52;2.00;;;3.80;99.90;;;;;;4956594;28;20035;-52
2021/12/02 03:53:55;;;;;;;5.68;1.25;;;3.70;99.90;;;;;;4956314;28;20027;-47
2021/12/02 03:56:21;;;;;;;10.35;1.60;;;3.70;99.90;;;;;;4955876;28;20031;-48
2021/12/02 03:58:47;;;;;;;10.70;1.67;;;3.70;99.90;;;;;;4956350;28;20035;-46
2021/12/02 04:01:14;;;;;;;6.60;1.70;;;3.70;99.90;;;;;;4956376;29;20023;-49
2021/12/02 04:03:41;;;;;;;14.55;2.17;;;3.70;99.90;;;;;;4956320;29;20133;-47
2021/12/02 04:06:07;;;;;;;6.93;1.30;;;3.70;99.90;;;;;;4956609;28;20038;-52
2021/12/02 04:16:37;;;;;;;6.50;1.95;;;3.60;99.90;;;;;;4956095;28;20369;-52
2021/12/02 04:19:08;;;;;;;12.57;2.20;;;3.70;99.90;;;;;;4956291;29;20032;-53
2021/12/02 04:21:33;;;;;;;10.38;1.52;;;3.70;99.90;;;;;;4955131;29;20110;-51
2021/12/02 04:24:00;;;;;;;4.22;1.25;;;3.70;99.90;;;;;;4955757;28;20475;-53
2021/12/02 04:26:25;;;;;;;5.35;1.60;;;3.80;99.90;;;;;;4955870;28;20400;-52
2021/12/02 04:28:51;;;;;;;13.40;2.17;;;3.70;99.90;;;;;;4954505;28;20027;-53
2021/12/02 04:31:17;;;;;;;4.88;1.40;;;3.70;99.90;;;;;;4956358;28;20039;-53
2021/12/02 04:33:42;;;;;;;6.35;1.50;;;3.80;99.90;;;;;;4955507;28;20035;-53
2021/12/02 04:36:08;;;;;;;11.40;1.80;;;3.80;99.90;;;;;;4954812;28;20039;-52
2021/12/02 04:38:35;;;;;;;7.70;1.30;;;3.80;99.90;;;;;;4955380;28;20036;-51
2021/12/02 04:41:00;;;;;;;10.70;1.98;;;3.90;99.90;;;;;;4955606;28;20046;-52
2021/12/02 04:43:26;;;;;;;13.70;2.20;;;3.90;99.90;;;;;;4955640;28;20031;-53
2021/12/02 04:45:52;;;;;;;7.65;1.77;;;3.90;99.90;;;;;;4955452;28;20030;-51
2021/12/02 04:48:18;;;;;;;14.98;1.90;;;3.90;99.90;;;;;;4954754;28;20031;-53
2021/12/02 04:50:45;;;;;;;8.02;1.77;;;3.90;99.90;;;;;;4955233;28;20023;-52
2021/12/02 04:53:11;;;;;;;7.78;1.52;;;3.90;99.90;;;;;;4955373;28;20023;-54
2021/12/02 04:55:37;;;;;;;9.32;1.75;;;3.90;99.90;;;;;;4955309;28;20024;-52
2021/12/02 04:58:03;;;;;;;8.10;1.67;;;3.90;99.90;;;;;;4955204;28;20027;-51
2021/12/02 05:00:29;;;;;;;10.45;2.08;;;3.90;99.90;;;;;;4954237;29;20035;-53
2021/12/02 05:02:54;;;;;;;7.88;2.03;;;4.00;99.90;;;;;;4955123;28;20054;-52
2021/12/02 05:05:20;;;;;;;8.15;1.38;;;4.00;99.90;;;;;;4954883;28;20031;-52
2021/12/02 05:07:48;;;;;;;10.32;1.30;;;4.00;99.90;;;;;;4954544;28;20372;-51
2021/12/02 05:10:14;;;;;;;7.68;2.05;;;3.90;99.90;;;;;;4955076;28;20035;-52
2021/12/02 05:12:39;;;;;;;9.70;2.53;;;3.90;99.90;;;;;;4953812;28;20404;-50
2021/12/02 05:15:05;;;;;;;8.18;1.60;;;3.90;99.90;;;;;;4954655;28;20082;-51
2021/12/02 05:17:31;;;;;;;9.60;1.92;;;4.00;99.90;;;;;;4953783;28;20086;-51
2021/12/02 05:19:56;;;;;;;13.18;2.30;;;3.90;99.90;;;;;;4954832;28;20540;-51
2021/12/02 05:22:22;;;;;;;11.80;2.03;;;4.00;99.90;;;;;;4954809;28;20027;-52
2021/12/02 05:24:47;;;;;;;10.98;1.58;;;4.00;99.90;;;;;;4954501;28;20027;-51
2021/12/02 05:27:14;;;;;;;7.18;1.48;;;3.90;99.90;;;;;;4952664;28;20078;-50
2021/12/02 05:29:40;;;;;;;7.47;1.33;;;3.70;99.90;;;;;;4954441;28;20049;-51
2021/12/02 05:32:06;;;;;;;5.15;1.38;;;3.60;99.90;;;;;;4954618;28;20031;-49
2021/12/02 05:34:32;;;;;;;5.78;1.08;;;3.40;99.90;;;;;;4955164;28;20420;-47
2021/12/02 05:36:58;;;;;;;4.57;1.25;;;3.30;99.90;;;;;;4954472;28;20042;-48
2021/12/02 05:39:23;;;;;;;8.02;1.30;;;3.20;99.90;;;;;;4954589;28;20055;-46
2021/12/02 05:41:53;;;;;;;3.47;1.20;;;3.10;99.90;;;;;;4953807;28;20582;-48
2021/12/02 05:44:20;;;;;;;6.10;1.25;;;3.00;99.90;;;;;;4953023;28;20028;-46
2021/12/02 05:46:45;;;;;;;3.72;1.20;;;3.00;99.90;;;;;;4952891;29;20025;-46
2021/12/02 05:49:11;;;;;;;2.88;0.90;;;2.90;99.90;;;;;;4954138;29;20034;-46
2021/12/02 05:51:36;;;;;;;1.33;0.93;;;2.80;99.90;;;;;;4954020;29;20494;-47
2021/12/02 05:54:02;;;;;;;2.88;0.68;;;2.70;99.90;;;;;;4954310;29;20035;-47
2021/12/02 05:56:28;;;;;;;5.93;1.23;;;2.80;99.90;;;;;;4953211;29;20403;-47
2021/12/02 05:58:53;;;;;;;5.45;1.00;;;2.80;99.90;;;;;;4953987;29;20078;-46
2021/12/02 06:01:19;;;;;;;5.78;1.25;;;2.70;99.90;;;;;;4954352;28;20113;-48
2021/12/02 06:03:44;;;;;;;3.05;1.23;;;2.70;99.90;;;;;;4954187;28;20030;-47
2021/12/02 06:06:10;;;;;;;2.33;0.95;;;2.80;99.90;;;;;;4954183;28;20064;-46
2021/12/02 06:08:36;;;;;;;6.03;1.30;;;2.70;99.90;;;;;;4953201;28;20457;-46
2021/12/02 06:11:02;;;;;;;3.75;1.20;;;2.80;99.90;;;;;;4954151;28;20050;-46
2021/12/02 06:13:28;;;;;;;6.70;1.00;;;2.80;99.90;;;;;;4954035;28;20027;-46
2021/12/02 06:15:53;;;;;;;4.43;1.13;;;2.80;99.90;;;;;;4953887;28;20035;-46
2021/12/02 06:18:19;;;;;;;1.55;1.00;;;2.80;99.90;;;;;;4953998;28;20473;-47
2021/12/02 06:20:51;;;;;;;7.35;1.48;;;2.90;99.90;;;;;;4953994;28;20024;-47
2021/12/02 06:23:17;;;;;;;7.43;1.63;;;2.90;99.90;;;;;;4953339;28;20031;-48
2021/12/02 06:25:45;;;;;;;6.97;1.83;;;2.90;99.90;;;;;;4953768;29;20029;-46
2021/12/02 06:28:11;;;;;;;5.05;1.95;;;3.00;99.90;;;;;;4953907;28;20031;-47
2021/12/02 06:30:37;;;;;;;3.92;1.77;;;3.00;99.90;;;;;;4953169;29;20032;-46
2021/12/02 06:33:03;;;;;;;10.15;1.92;;;3.10;99.90;;;;;;4952650;28;20492;-46
2021/12/02 06:35:29;;;;;;;7.97;2.28;;;3.10;99.90;;;;;;4953439;29;20071;-51
2021/12/02 06:37:55;;;;;;;9.30;2.38;;;3.20;99.90;;;;;;4953387;29;20423;-47
2021/12/02 06:40:21;;;;;;;4.47;1.55;;;3.20;99.90;;;;;;4953961;28;20169;-50
2021/12/02 06:42:47;;;;;;;8.15;1.65;;;3.30;99.90;;;;;;4956185;28;20039;-47
2021/12/02 06:45:13;;;;;;;7.15;1.90;;;3.40;99.90;;;;;;4957519;28;20372;-48
2021/12/02 06:47:40;;;;;;;10.07;2.42;;;3.40;99.90;;;;;;4958391;28;20042;-50
2021/12/02 06:50:09;;;;;;;7.88;2.33;;;3.40;99.90;;;;;;4957175;28;20527;-47
2021/12/02 06:52:36;;;;;;;14.10;3.25;;;3.50;99.90;;;;;;4957436;28;20080;-54
2021/12/02 06:55:02;;;;;;;11.90;2.75;;;3.40;99.90;;;;;;4955726;28;20063;-52
2021/12/02 06:57:27;;;;;;;10.50;3.78;;;3.40;99.90;;;;;;4955605;28;20047;-52
2021/12/02 06:59:53;;;;;;;12.90;3.72;;;3.50;99.90;;;;;;4955208;28;20062;-49
2021/12/02 07:02:18;;;;;;;13.77;3.72;;;3.50;99.90;;;;;;4956547;28;20035;-51
2021/12/02 07:04:46;;;;;;;16.67;3.78;;;3.60;99.90;;;;;;4957240;28;20038;-52
2021/12/02 07:07:11;;;;;;;7.70;2.67;;;3.50;99.90;;;;;;4957281;28;20118;-51
2021/12/02 07:09:37;;;;;;;10.75;2.22;;;3.50;99.90;;;;;;4956902;28;20111;-49
2021/12/02 07:12:03;;;;;;;10.02;2.03;;;3.40;99.90;;;;;;4957045;28;20421;-51
2021/12/02 07:14:28;;;;;;;7.55;1.90;;;3.30;99.90;;;;;;4956795;28;20032;-51
2021/12/02 07:16:54;;;;;;;8.82;2.20;;;3.20;99.90;;;;;;4957098;28;20086;-51
2021/12/02 07:19:20;;;;;;;10.93;1.80;;;3.10;99.90;;;;;;4957645;28;20094;-53
2021/12/02 07:21:45;;;;;;;7.30;1.90;;;3.10;99.90;;;;;;4957909;28;20061;-49
2021/12/02 07:24:14;;;;;;;3.35;1.60;;;2.90;99.90;;;;;;4956588;28;20106;-53
2021/12/02 07:26:42;;;;;;;12.05;1.55;;;2.90;99.90;;;;;;4956734;28;20035;-52
2021/12/02 07:29:09;;;;;;;5.75;1.35;;;2.80;99.90;;;;;;4956810;28;20062;-49
2021/12/02 07:31:37;;;;;;;9.15;1.90;;;2.80;99.90;;;;;;4957103;28;20536;-49
2021/12/02 07:34:03;;;;;;;4.97;1.60;;;2.80;99.90;;;;;;4956690;28;20038;-53
2021/12/02 07:36:30;;;;;;;7.07;1.98;;;2.80;99.90;;;;;;4956876;28;20055;-50
2021/12/02 07:38:56;;;;;;;11.25;2.55;;;2.70;99.90;;;;;;4956738;28;20035;-51
2021/12/02 07:41:21;;;;;;;5.07;1.65;;;2.70;99.90;;;;;;4957038;28;20019;-52
2021/12/02 07:43:47;;;;;;;7.90;1.83;;;2.70;99.90;;;;;;4956877;28;20031;-51
2021/12/02 07:46:13;;;;;;;5.85;1.83;;;2.70;99.90;;;;;;4957001;28;20536;-49
2021/12/02 07:48:38;;;;;;;5.13;1.70;;;2.80;99.90;;;;;;4957011;28;20433;-51
2021/12/02 07:51:17;;;;;;;8.23;2.08;;;2.80;99.90;;;;;;4956742;28;20050;-52
2021/12/02 07:53:46;;;;;;;7.18;1.85;;;2.70;99.90;;;;;;4956318;28;20107;-51
2021/12/02 07:56:14;;;;;;;7.20;1.50;;;2.80;99.90;;;;;;4955086;28;20079;-52
2021/12/02 07:58:42;;;;;;;7.18;1.42;;;2.80;99.90;;;;;;4955905;28;20043;-54
2021/12/02 08:01:08;;;;;;;6.38;2.53;;;2.80;99.90;;;;;;4956645;28;20068;-53
2021/12/02 08:03:34;;;;;;;7.53;1.98;;;2.80;99.90;;;;;;4956493;28;20089;-54
2021/12/02 08:06:00;;;;;;;8.43;2.20;;;2.80;99.90;;;;;;4956524;28;20031;-50
2021/12/02 08:08:25;;;;;;;10.45;2.20;;;2.80;99.90;;;;;;4956905;28;20027;-52
2021/12/02 08:10:51;;;;;;;14.27;2.65;;;2.80;99.90;;;;;;4956347;28;20041;-51
2021/12/02 08:13:17;;;;;;;7.45;2.03;;;2.90;99.90;;;;;;4955876;28;20027;-53
2021/12/02 08:15:43;;;;;;;10.48;2.28;;;2.90;99.90;;;;;;4955855;28;20098;-55
2021/12/02 08:18:09;;;;;;;9.25;3.30;;;3.00;99.90;;;;;;4955818;28;20067;-52
2021/12/02 08:20:36;;;;;;;19.35;8.32;;;3.00;99.90;;;;;;4955809;28;20481;-55
2021/12/02 08:23:03;;;;;;;20.33;6.85;;;2.90;99.90;;;;;;4955922;28;20082;-53
2021/12/02 08:25:30;;;;;;;20.02;6.07;;;3.00;99.90;;;;;;4955966;28;20128;-50
2021/12/02 08:27:59;;;;;;;23.38;6.78;;;3.00;99.90;;;;;;4955901;28;20059;-51
2021/12/02 08:30:27;;;;;;;23.42;7.22;;;3.00;99.90;;;;;;4955055;28;20444;-51
2021/12/02 08:32:54;;;;;;;50.13;13.05;;;3.10;99.90;;;;;;4956264;28;20031;-49
2021/12/02 08:35:21;;;;;;;31.75;11.43;;;3.10;99.90;;;;;;4956065;28;20031;-52
2021/12/02 08:37:49;;;;;;;33.50;8.43;;;3.00;99.90;;;;;;4956097;28;20051;-52
2021/12/02 08:40:22;;;;;;;22.92;8.18;;;3.10;99.90;;;;;;4955775;28;20042;-50
2021/12/02 08:42:48;;;;;;;26.20;6.85;;;3.10;99.90;;;;;;4954306;28;20480;-50
2021/12/02 08:45:15;;;;;;;18.35;6.63;;;3.20;99.90;;;;;;4957123;28;20051;-48
2021/12/02 08:47:44;;;;;;;16.45;5.80;;;3.30;99.90;;;;;;4955728;28;20054;-47
2021/12/02 08:50:18;;;;;;;18.80;6.03;;;3.30;99.90;;;;;;4955710;28;20055;-47
2021/12/02 08:52:45;;;;;;;13.35;6.53;;;3.30;99.90;;;;;;4955325;28;20031;-49
2021/12/02 08:55:12;;;;;;;10.00;4.85;;;3.30;99.90;;;;;;4955382;28;20035;-48
2021/12/02 08:57:38;;;;;;;11.85;4.80;;;3.30;99.90;;;;;;4955015;28;20032;-48
2021/12/02 09:00:07;;;;;;;11.02;4.55;;;3.30;99.90;;;;;;4955482;28;20031;-49
2021/12/02 09:02:33;;;;;;;10.70;5.32;;;3.30;99.90;;;;;;4955468;28;20023;-48
2021/12/02 09:04:58;;;;;;;16.23;5.40;;;3.30;99.90;;;;;;4954157;28;20495;-49
2021/12/02 09:07:24;;;;;;;10.55;5.32;;;3.30;99.90;;;;;;4954882;28;20027;-52
2021/12/02 09:09:50;;;;;;;11.40;5.55;;;3.20;99.90;;;;;;4955117;28;20027;-50
2021/12/02 09:12:16;;;;;;;12.85;5.32;;;3.30;99.90;;;;;;4954517;28;20396;-47
2021/12/02 09:14:41;;;;;;;11.38;4.63;;;3.30;99.90;;;;;;4954838;28;20034;-53
2021/12/02 09:17:07;;;;;;;11.18;4.65;;;3.30;99.90;;;;;;4954638;28;20034;-50
2021/12/02 09:19:33;;;;;;;14.30;4.65;;;3.30;99.90;;;;;;4954847;28;20536;-49
2021/12/02 09:21:58;;;;;;;10.32;5.03;;;3.40;99.90;;;;;;4954974;28;20475;-50
2021/12/02 09:24:24;;;;;;;12.65;5.25;;;3.40;99.90;;;;;;4954666;28;20074;-48
2021/12/02 09:26:52;;;;;;;21.02;5.18;;;3.50;99.90;;;;;;4954456;28;20406;-50
2021/12/02 09:29:19;;;;;;;12.18;4.50;;;3.50;99.90;;;;;;4954862;28;20493;-50
2021/12/02 09:31:46;;;;;;;9.77;5.05;;;3.60;99.90;;;;;;4954884;28;20392;-50
2021/12/02 09:34:12;;;;;;;10.52;4.28;;;3.60;99.90;;;;;;4954583;28;20106;-50
2021/12/02 09:36:38;;;;;;;11.73;4.85;;;3.60;99.90;;;;;;4954584;28;20027;-50
2021/12/02 09:39:05;;;;;;;11.32;4.78;;;3.60;99.90;;;;;;4954484;28;20031;-51
2021/12/02 09:41:31;;;;;;;11.20;4.53;;;3.60;99.90;;;;;;4954204;28;20066;-48
2021/12/02 09:43:57;;;;;;;13.30;5.40;;;3.60;99.90;;;;;;4952985;28;20062;-47
2021/12/02 09:46:22;;;;;;;19.33;5.57;;;3.70;99.90;;;;;;4954609;28;20043;-49
2021/12/02 09:48:49;;;;;;;12.05;4.55;;;3.70;99.90;;;;;;4954504;28;20062;-51
2021/12/02 09:51:39;;;;;;;11.43;5.75;;;3.70;99.90;;;;;;4954036;28;20027;-49
2021/12/02 09:54:13;;;;;;;11.63;5.50;;;3.70;99.90;;;;;;4954566;28;20051;-48
2021/12/02 09:56:40;;;;;;;11.85;5.03;;;3.80;99.90;;;;;;4955509;28;20413;-50
2021/12/02 09:59:12;;;;;;;9.95;5.63;;;3.90;99.90;;;;;;4952694;28;20031;-47
2021/12/02 10:01:50;;;;;;;13.35;4.97;;;4.00;99.90;;;;;;4954755;28;20102;-49
2021/12/02 10:04:15;;;;;;;7.20;4.57;;;4.00;99.90;;;;;;4954549;28;20086;-48
2021/12/02 10:06:43;;;;;;;10.60;4.55;;;4.10;99.90;;;;;;4954477;28;20051;-51
2021/12/02 10:09:19;;;;;;;9.82;4.85;;;4.20;99.90;;;;;;4954728;28;20035;-50
2021/12/02 10:12:14;;;;;;;6.40;3.70;;;4.30;99.90;;;;;;4954727;28;20054;-47
2021/12/02 10:14:39;;;;;;;6.35;3.58;;;4.30;99.90;;;;;;4953596;28;20037;-47
2021/12/02 10:17:24;;;;;;;8.65;3.53;;;4.40;99.90;;;;;;4994047;23;20341;-73
2021/12/02 10:23:26;;;;;;;7.90;3.58;;;4.40;99.90;;;;;;4960825;29;20103;-73
2021/12/02 10:25:58;;;;;;;8.70;4.50;;;4.40;99.90;;;;;;4940399;29;20491;-73
2021/12/02 10:28:25;;;;;;;11.68;4.82;;;4.40;99.90;;;;;;4955455;29;20039;-73
2021/12/02 10:31:00;;;;;;;15.30;6.25;;;4.40;99.90;;;;;;4956253;28;20058;-72
2021/12/02 10:33:34;;;;;;;13.55;6.00;;;4.30;99.90;;;;;;4955530;29;20485;-73
2021/12/02 10:36:03;;;;;;;10.98;5.53;;;4.30;99.90;;;;;;4955769;28;20031;-73
2021/12/02 10:38:39;;;;;;;6.07;3.65;;;4.30;99.90;;;;;;4955891;28;20038;-73
2021/12/02 10:41:18;;;;;;;3.03;0.88;;;4.10;99.90;;;;;;4954274;28;20031;-72
2021/12/02 10:44:06;;;;;;;2.22;0.93;;;3.50;99.90;;;;;;4955167;29;20050;-72
2021/12/02 10:46:35;;;;;;;4.72;1.27;;;2.80;99.90;;;;;;4956340;28;20031;-72
2021/12/02 10:49:01;;;;;;;4.10;1.17;;;2.50;99.90;;;;;;4963660;29;20098;-72
2021/12/02 10:51:40;;;;;;;2.05;1.30;;;2.20;99.90;;;;;;4957151;29;20448;-72
2021/12/02 10:54:14;;;;;;;5.53;1.83;;;2.00;99.90;;;;;;4955491;28;20032;-72
2021/12/02 10:56:43;;;;;;;3.28;1.50;;;1.90;99.90;;;;;;4957040;28;20019;-72
2021/12/02 10:59:25;;;;;;;4.32;0.93;;;1.80;99.90;;;;;;4955636;28;20023;-72
2021/12/02 11:01:59;;;;;;;3.50;1.00;;;1.80;99.90;;;;;;4955333;28;20023;-72
2021/12/02 11:04:27;;;;;;;2.03;0.93;;;1.80;99.90;;;;;;4955640;28;20408;-73
2021/12/02 11:07:00;;;;;;;2.08;0.82;;;1.80;99.90;;;;;;4955255;28;20027;-72
2021/12/02 11:09:31;;;;;;;1.58;1.20;;;1.80;99.90;;;;;;4955511;28;20034;-73
2021/12/02 11:12:24;;;;;;;5.47;1.98;;;1.90;99.90;;;;;;4955378;28;20031;-73
2021/12/02 11:15:04;;;;;;;3.42;1.25;;;1.90;99.90;;;;;;4936565;29;20086;-73
2021/12/02 11:17:33;;;;;;;3.08;1.20;;;1.90;99.90;;;;;;4936187;29;20039;-73
2021/12/02 11:20:04;;;;;;;2.33;1.27;;;1.90;99.90;;;;;;4936137;29;20020;-73
2021/12/02 11:22:30;;;;;;;5.55;1.60;;;2.00;99.90;;;;;;4936629;29;20409;-73
2021/12/02 11:24:58;;;;;;;3.53;1.63;;;2.00;99.90;;;;;;4936396;29;20447;-73
2021/12/02 11:27:33;;;;;;;1.73;0.95;;;2.10;99.90;;;;;;4937409;29;20027;-72
2021/12/02 11:30:05;;;;;;;5.47;1.20;;;2.10;99.90;;;;;;4952368;29;20051;-73
2021/12/02 11:32:40;;;;;;;4.85;1.25;;;2.20;99.90;;;;;;4958881;28;20116;-73
2021/12/02 11:35:14;;;;;;;1.80;1.48;;;2.30;99.90;;;;;;4957346;28;20019;-73
2021/12/02 11:37:43;;;;;;;6.20;1.55;;;2.40;99.90;;;;;;4958796;28;20384;-73
2021/12/02 11:40:16;;;;;;;3.00;1.40;;;2.40;99.90;;;;;;4958181;28;20528;-72
2021/12/02 11:42:42;;;;;;;2.92;1.85;;;2.40;99.90;;;;;;4959190;28;20035;-71
2021/12/02 11:45:10;;;;;;;5.80;1.70;;;2.40;99.90;;;;;;4958291;28;20078;-72
2021/12/02 11:47:36;;;;;;;2.78;1.40;;;2.40;99.90;;;;;;4958813;28;20027;-72
2021/12/02 11:50:03;;;;;;;4.47;2.47;;;2.40;99.90;;;;;;4957146;28;20374;-72
2021/12/02 11:52:29;;;;;;;2.95;1.60;;;2.30;99.90;;;;;;4957466;28;20516;-72
2021/12/02 11:54:58;;;;;;;2.00;1.30;;;2.40;99.90;;;;;;4957985;28;20055;-72
2021/12/02 11:57:24;;;;;;;6.63;1.30;;;2.40;99.90;;;;;;4957033;28;20082;-72
2021/12/02 11:59:49;;;;;;;3.75;1.00;;;2.30;99.90;;;;;;4957559;28;20035;-72
2021/12/02 12:02:18;;;;;;;5.10;3.38;;;2.30;99.90;;;;;;4957256;28;20030;-72
2021/12/02 12:05:01;;;;;;;7.57;3.65;;;2.40;99.90;;;;;;4957658;28;20388;-72
2021/12/02 12:07:43;;;;;;;4.95;2.38;;;2.40;99.90;;;;;;4957257;28;20027;-71
2021/12/02 12:10:14;;;;;;;2.80;0.90;;;2.50;99.90;;;;;;4956015;29;20433;-72
2021/12/02 12:12:43;;;;;;;;;;;2.70;99.90;;;;;;4957590;28;20174;-72
2021/12/02 12:15:30;;;;;;;3.67;1.83;;;2.80;99.90;;;;;;4957183;28;20339;-72
2021/12/02 12:17:55;;;;;;;4.13;1.27;;;2.80;99.90;;;;;;4955572;29;20036;-72
2021/12/02 12:20:21;;;;;;;9.05;2.42;;;2.80;99.90;;;;;;4957021;28;20395;-72
2021/12/02 12:22:46;;;;;;;33.10;8.82;;;2.80;99.90;;;;;;4957365;29;20078;-72
2021/12/02 12:25:28;;;;;;;13.57;5.50;;;2.90;99.90;;;;;;4956704;29;20019;-72
2021/12/02 12:27:57;;;;;;;10.98;3.15;;;2.90;99.90;;;;;;4956174;28;20039;-72
2021/12/02 12:30:24;;;;;;;5.07;2.08;;;2.90;99.90;;;;;;4954692;29;20077;-71
2021/12/02 12:35:31;;;;;;;5.28;2.45;;;3.00;99.90;;;;;;4956650;28;20027;-72
2021/12/02 12:37:57;;;;;;;5.07;1.75;;;3.00;99.90;;;;;;4955638;28;20110;-72
2021/12/02 12:40:25;;;;;;;5.97;1.50;;;3.00;99.90;;;;;;4955839;28;20411;-72
2021/12/02 12:43:02;;;;;;;2.95;1.42;;;3.10;99.90;;;;;;4956662;28;20031;-72
2021/12/02 12:45:33;;;;;;;4.13;1.48;;;3.10;99.90;;;;;;4955833;28;20463;-72
2021/12/02 12:48:00;;;;;;;;;;;3.10;99.90;;;;;;4956588;28;20085;-74
2021/12/02 12:50:33;;;;;;;4.18;1.20;;;3.10;99.90;;;;;;4954583;28;20341;-73
2021/12/02 12:53:05;;;;;;;3.33;1.65;;;3.10;99.90;;;;;;4955874;28;20023;-73
2021/12/02 12:55:38;;;;;;;6.43;1.60;;;3.10;99.90;;;;;;4956065;28;20473;-73
2021/12/02 12:58:18;;;;;;;6.03;1.30;;;3.10;99.90;;;;;;4955901;28;20047;-72
2021/12/02 13:00:53;;;;;;;10.32;1.40;;;3.00;99.90;;;;;;4955743;28;20453;-72
2021/12/02 13:03:23;;;;;;;5.30;1.73;;;2.90;99.90;;;;;;4956097;28;20107;-73
2021/12/02 13:05:59;;;;;;;5.07;1.30;;;2.90;99.90;;;;;;4955497;28;20023;-72
2021/12/02 13:08:44;;;;;;;8.23;1.85;;;2.80;99.90;;;;;;4955537;28;20035;-73
2021/12/02 13:11:18;;;;;;;8.43;2.10;;;2.70;99.90;;;;;;4955788;28;20035;-73
2021/12/02 13:13:46;;;;;;;3.03;1.33;;;2.70;99.90;;;;;;4955695;28;20031;-72
2021/12/02 13:16:18;;;;;;;2.70;1.60;;;2.70;99.90;;;;;;4955802;28;20024;-73
2021/12/02 13:19:09;;;;;;;6.70;1.38;;;2.60;99.90;;;;;;4956472;28;20058;-73
2021/12/02 13:21:35;;;;;;;5.32;1.25;;;2.70;99.90;;;;;;4955686;29;20034;-73
2021/12/02 13:24:20;;;;;;;3.28;1.38;;;2.60;99.90;;;;;;4955197;28;20098;-73
2021/12/02 13:26:53;;;;;;;11.00;1.65;;;2.60;99.90;;;;;;4955469;28;20049;-72
2021/12/02 13:29:25;;;;;;;9.48;2.40;;;2.60;99.90;;;;;;4955368;29;20058;-72